Cloquet, MN

8:58 PM CST on December 10, 2019 (GMT -0600)
Cloquet Carlton County

Weather History for KCOQ - October, 2019

Change the Weather History Date:

Sunday, October 6, 2019

  Actual Average Record
Temperature  
Mean Temperature 50 °F -  
Max Temperature 57 °F 56 °F 73 °F (2004)
Min Temperature 42 °F 36 °F 24 °F (1999)
Degree Days  
Heating Degree Days 16    
Moisture  
Dew Point 41 °F    
Average Humidity 76    
Maximum Humidity 93    
Minimum Humidity 51    
Precipitation  
Precipitation 0.03 in - - ()
Sea Level Pressure  
Sea Level Pressure 29.80 in    
Wind  
Wind Speed 10 mph ()    
Max Wind Speed 21 mph    
Max Gust Speed 32 mph    
Visibility 10.0 miles    
Events Rain    
Averages and records for this station are not official NWS values.
T = Trace of Precipitation, MM = Missing Value Source: Averaged Metar Reports

Daily Weather History Graph

Daily Weather History Graph

Search for Another Location

Airport or City:

Astronomy

Oct. 06, 2019 Rise Set
Actual Time 7:15 AM CDT 6:40 PM CDT
Civil Twilight 6:44 AM CDT 7:10 PM CDT
Nautical Twilight 6:09 AM CDT 7:45 PM CDT
Astronomical Twilight 5:34 AM CDT 8:20 PM CDT
Moon 3:46 PM CDT (10/6) No Moon Set
Length of Visible Light 12h 25m
Length of Day
11h 25m
First Quarter, 60% of the Moon is Illuminated
Oct 6
First Quarter
Oct 13
Full
Oct 21
Last Quarter
Oct 27
New
Nov 4
First Quarter

Hourly Weather History & Observations

Time (CDT) Temp. Windchill Dew Point Humidity Pressure Visibility Wind Dir Wind Speed Gust Speed Precip Events Conditions
12:15 AM 44.6 °F 40.2 °F 41.0 °F 87% 29.67 in 10.0 mi WSW 8.1 mph 17.3 mph N/A   Overcast
12:35 AM 44.6 °F 39.2 °F 41.0 °F 87% 29.66 in 10.0 mi WSW 10.4 mph 17.3 mph N/A   Overcast
12:55 AM 44.6 °F 39.7 °F 41.0 °F 87% 29.67 in 10.0 mi SW 9.2 mph - N/A   Overcast
12:56 AM 44.6 °F 39.7 °F 41.0 °F 87% 29.67 in 10.0 mi SW 9.2 mph - N/A   Overcast
1:15 AM 46.4 °F 40.7 °F 41.0 °F 81% 29.67 in 10.0 mi SW 12.7 mph - N/A   Overcast
1:35 AM 46.4 °F 41.5 °F 42.8 °F 87% 29.68 in 10.0 mi WSW 10.4 mph - N/A   Overcast
1:36 AM 46.4 °F 41.5 °F 42.8 °F 87% 29.68 in 10.0 mi WSW 10.4 mph - N/A   Overcast
1:55 AM 46.4 °F 41.5 °F 42.8 °F 87% 29.69 in 10.0 mi WSW 10.4 mph - N/A   Overcast
2:15 AM 46.4 °F 41.5 °F 42.8 °F 87% 29.70 in 10.0 mi WSW 10.4 mph - N/A   Overcast
2:16 AM 46.4 °F 41.5 °F 42.8 °F 87% 29.70 in 10.0 mi WSW 10.4 mph - N/A   Overcast
2:35 AM 46.4 °F 42.4 °F 42.8 °F 87% 29.70 in 10.0 mi WSW 8.1 mph - N/A   Overcast
2:36 AM 46.4 °F 41.9 °F 42.8 °F 87% 29.70 in 10.0 mi WSW 9.2 mph - N/A   Overcast
2:55 AM 46.4 °F 42.4 °F 42.8 °F 87% 29.71 in 10.0 mi WSW 8.1 mph - N/A   Mostly Cloudy
3:15 AM 46.4 °F 42.9 °F 42.8 °F 87% 29.71 in 10.0 mi SW 6.9 mph - N/A   Mostly Cloudy
3:35 AM 46.4 °F 41.5 °F 42.8 °F 87% 29.71 in 10.0 mi SW 10.4 mph 17.3 mph N/A   Scattered Clouds
3:55 AM 44.6 °F 39.7 °F 42.8 °F 93% 29.72 in 10.0 mi SW 9.2 mph - N/A   Scattered Clouds
4:15 AM 44.6 °F 39.7 °F 41.0 °F 87% 29.72 in 10.0 mi SW 9.2 mph - N/A   Clear
4:35 AM 44.6 °F 39.2 °F 41.0 °F 87% 29.72 in 10.0 mi SW 10.4 mph - N/A   Clear
4:55 AM 44.6 °F 40.7 °F 41.0 °F 87% 29.72 in 10.0 mi SW 6.9 mph - N/A   Clear
4:56 AM 44.6 °F 41.4 °F 41.0 °F 87% 29.72 in 10.0 mi SW 5.8 mph - N/A   Clear
5:15 AM 44.6 °F 39.7 °F 41.0 °F 87% 29.72 in 10.0 mi SW 9.2 mph - N/A   Clear
5:35 AM 44.6 °F 40.2 °F 41.0 °F 87% 29.73 in 10.0 mi SW 8.1 mph - N/A   Clear
5:55 AM 44.6 °F 41.4 °F 41.0 °F 87% 29.74 in 10.0 mi SW 5.8 mph - N/A   Clear
5:56 AM 44.6 °F 41.4 °F 41.0 °F 87% 29.74 in 10.0 mi SW 5.8 mph - N/A   Clear
6:15 AM 42.8 °F 39.3 °F 41.0 °F 93% 29.74 in 10.0 mi SW 5.8 mph - N/A   Clear
6:35 AM 44.6 °F 40.2 °F 39.2 °F 81% 29.74 in 10.0 mi SW 8.1 mph - N/A   Clear
6:36 AM 44.6 °F 40.2 °F 39.2 °F 81% 29.74 in 10.0 mi SW 8.1 mph - N/A   Clear
6:55 AM 42.8 °F 39.3 °F 39.2 °F 87% 29.75 in 10.0 mi SSW 5.8 mph - N/A   Clear
7:15 AM 42.8 °F 38.6 °F 39.2 °F 87% 29.75 in 10.0 mi SW 6.9 mph - N/A   Clear
7:16 AM 42.8 °F 38.6 °F 39.2 °F 87% 29.75 in 10.0 mi SW 6.9 mph - N/A   Clear
7:35 AM 42.8 °F 38.6 °F 39.2 °F 87% 29.75 in 10.0 mi SW 6.9 mph - N/A   Clear
7:55 AM 44.6 °F 39.2 °F 39.2 °F 81% 29.76 in 10.0 mi SW 10.4 mph 16.1 mph N/A   Clear
8:15 AM 46.4 °F 41.5 °F 39.2 °F 76% 29.76 in 10.0 mi WSW 10.4 mph - N/A   Clear
8:16 AM 46.4 °F 41.5 °F 39.2 °F 76% 29.76 in 10.0 mi WSW 10.4 mph - N/A   Clear
8:35 AM 46.4 °F 41.1 °F 39.2 °F 76% 29.77 in 10.0 mi WSW 11.5 mph 20.7 mph N/A   Clear
8:55 AM 48.2 °F - 39.2 °F 71% 29.76 in 10.0 mi WSW 15.0 mph 21.9 mph N/A   Clear
9:15 AM 48.2 °F - 39.2 °F 71% 29.77 in 10.0 mi WSW 11.5 mph 17.3 mph N/A   Clear
9:35 AM 50.0 °F - 39.2 °F 66% 29.77 in 10.0 mi WSW 12.7 mph 16.1 mph N/A   Clear
9:55 AM 51.8 °F - 39.2 °F 62% 29.77 in 10.0 mi WSW 13.8 mph 19.6 mph N/A   Scattered Clouds
9:56 AM 51.8 °F - 39.2 °F 62% 29.77 in 10.0 mi WSW 13.8 mph 19.6 mph N/A   Scattered Clouds
10:15 AM 51.8 °F - 39.2 °F 62% 29.78 in 10.0 mi WSW 15.0 mph 21.9 mph N/A   Scattered Clouds
10:35 AM 53.6 °F - 39.2 °F 58% 29.78 in 10.0 mi WSW 13.8 mph 23.0 mph N/A   Scattered Clouds
10:55 AM 53.6 °F - 39.2 °F 58% 29.79 in 10.0 mi SW 12.7 mph 23.0 mph N/A   Clear
10:56 AM 53.6 °F - 39.2 °F 58% 29.78 in 10.0 mi SW 11.5 mph 23.0 mph N/A   Clear
11:15 AM 55.4 °F - 39.2 °F 54% 29.78 in 10.0 mi WSW 16.1 mph 23.0 mph N/A   Clear
11:16 AM 55.4 °F - 39.2 °F 54% 29.78 in 10.0 mi West 18.4 mph 25.3 mph N/A   Clear
11:35 AM 55.4 °F - 39.2 °F 54% 29.79 in 10.0 mi West 17.3 mph 24.2 mph N/A   Clear
11:36 AM 55.4 °F - 39.2 °F 54% 29.79 in 10.0 mi West 16.1 mph 24.2 mph N/A   Scattered Clouds
11:55 AM 55.4 °F - 39.2 °F 54% 29.80 in 10.0 mi West 13.8 mph 29.9 mph N/A   Scattered Clouds
12:15 PM 55.4 °F - 39.2 °F 54% 29.80 in 10.0 mi WSW 20.7 mph 27.6 mph N/A   Scattered Clouds
12:16 PM 55.4 °F - 39.2 °F 54% 29.80 in 10.0 mi WSW 19.6 mph 27.6 mph N/A   Scattered Clouds
12:35 PM 57.2 °F - 39.2 °F 51% 29.80 in 10.0 mi WSW 18.4 mph 32.2 mph N/A   Scattered Clouds
12:55 PM 55.4 °F - 39.2 °F 54% 29.81 in 10.0 mi West 17.3 mph 26.5 mph N/A   Mostly Cloudy
1:15 PM 57.2 °F - 39.2 °F 51% 29.81 in 10.0 mi West 15.0 mph 28.8 mph N/A   Mostly Cloudy
1:35 PM 55.4 °F - 39.2 °F 54% 29.82 in 10.0 mi WSW 15.0 mph 28.8 mph N/A   Mostly Cloudy
1:55 PM 57.2 °F - 39.2 °F 51% 29.82 in 10.0 mi West 13.8 mph 28.8 mph N/A   Overcast
2:15 PM 55.4 °F - 39.2 °F 54% 29.82 in 10.0 mi WSW 17.3 mph 25.3 mph N/A   Overcast
2:35 PM 55.4 °F - 39.2 °F 54% 29.82 in 10.0 mi WSW 16.1 mph 26.5 mph N/A   Overcast
2:36 PM 55.4 °F - 39.2 °F 54% 29.82 in 10.0 mi WSW 13.8 mph 26.5 mph N/A   Overcast
2:55 PM 57.2 °F - 39.2 °F 51% 29.82 in 10.0 mi WSW 19.6 mph 28.8 mph N/A   Overcast
3:15 PM 55.4 °F - 41.0 °F 58% 29.82 in 10.0 mi SW 15.0 mph 23.0 mph N/A   Overcast
3:16 PM 55.4 °F - 41.0 °F 58% 29.82 in 10.0 mi WSW 15.0 mph 23.0 mph N/A   Overcast
3:35 PM 53.6 °F - 42.8 °F 67% 29.84 in 10.0 mi West 12.7 mph 28.8 mph N/A Rain Rain
3:36 PM 53.6 °F - 42.8 °F 67% 29.84 in 10.0 mi West 15.0 mph 28.8 mph N/A Rain Rain
3:55 PM 51.8 °F - 44.6 °F 76% 29.85 in 7.0 mi WSW 11.5 mph - 0.01 in Rain Light Rain
3:56 PM 51.8 °F - 44.6 °F 76% 29.85 in 10.0 mi WSW 11.5 mph - N/A Rain Light Rain
4:15 PM 51.8 °F - 44.6 °F 76% 29.85 in 10.0 mi WSW 10.4 mph - N/A Rain Light Rain
4:35 PM 51.8 °F - 46.4 °F 82% 29.84 in 10.0 mi WSW 6.9 mph - N/A Rain Rain
4:36 PM 51.8 °F - 46.4 °F 82% 29.84 in 10.0 mi WSW 6.9 mph - N/A Rain Rain
4:55 PM 51.8 °F - 46.4 °F 82% 29.84 in 10.0 mi WSW 9.2 mph - N/A   Mostly Cloudy
5:15 PM 51.8 °F - 46.4 °F 82% 29.84 in 10.0 mi SW 9.2 mph - N/A   Scattered Clouds
5:16 PM 51.8 °F - 46.4 °F 82% 29.84 in 10.0 mi WSW 9.2 mph - N/A   Scattered Clouds
5:35 PM 51.8 °F - 44.6 °F 76% 29.84 in 10.0 mi WSW 11.5 mph 20.7 mph N/A   Clear
5:55 PM 51.8 °F - 42.8 °F 71% 29.85 in 10.0 mi SW 9.2 mph - N/A   Clear
6:15 PM 51.8 °F - 42.8 °F 71% 29.85 in 10.0 mi WSW 8.1 mph - N/A   Scattered Clouds
6:35 PM 51.8 °F - 42.8 °F 71% 29.86 in 10.0 mi SW 8.1 mph - N/A   Mostly Cloudy
6:55 PM 50.0 °F - 42.8 °F 76% 29.87 in 10.0 mi WSW 10.4 mph 24.2 mph 0.01 in Rain Light Rain
6:56 PM 50.0 °F - 42.8 °F 76% 29.87 in 10.0 mi WSW 11.5 mph - N/A Rain Light Rain
7:15 PM 48.2 °F - 42.8 °F 82% 29.87 in 10.0 mi WSW 8.1 mph - N/A   Overcast
7:16 PM 48.2 °F - 42.8 °F 82% 29.87 in 10.0 mi WSW 8.1 mph - N/A   Overcast
7:35 PM 48.2 °F - 42.8 °F 82% 29.89 in 10.0 mi West 12.7 mph - 0.01 in Rain Rain
7:36 PM 48.2 °F - 42.8 °F 82% 29.89 in 10.0 mi West 11.5 mph 17.3 mph 0.01 in Rain Rain
7:55 PM 46.4 °F 42.9 °F 42.8 °F 87% 29.89 in 10.0 mi West 6.9 mph - 0.01 in   Overcast
8:15 PM 46.4 °F 42.4 °F 42.8 °F 87% 29.90 in 10.0 mi West 8.1 mph - N/A   Mostly Cloudy
8:35 PM 46.4 °F 43.5 °F 41.0 °F 81% 29.90 in 10.0 mi WSW 5.8 mph - N/A   Scattered Clouds
8:36 PM 46.4 °F 43.5 °F 41.0 °F 81% 29.90 in 10.0 mi WSW 5.8 mph - N/A   Scattered Clouds
8:55 PM 44.6 °F 40.7 °F 41.0 °F 87% 29.91 in 10.0 mi WSW 6.9 mph - N/A   Scattered Clouds
9:15 PM 44.6 °F 40.7 °F 41.0 °F 87% 29.91 in 10.0 mi WSW 6.9 mph - N/A   Clear
9:16 PM 44.6 °F 40.2 °F 41.0 °F 87% 29.91 in 10.0 mi WSW 8.1 mph - N/A   Clear
9:35 PM 44.6 °F 41.4 °F 41.0 °F 87% 29.92 in 10.0 mi West 5.8 mph - N/A   Clear
9:55 PM 44.6 °F 40.7 °F 39.2 °F 81% 29.92 in 10.0 mi WSW 6.9 mph - N/A   Clear
9:56 PM 44.6 °F 40.7 °F 39.2 °F 81% 29.92 in 10.0 mi WSW 6.9 mph - N/A   Clear
10:15 PM 44.6 °F 40.2 °F 41.0 °F 87% 29.92 in 10.0 mi WSW 8.1 mph - N/A   Clear
10:16 PM 44.6 °F 40.2 °F 41.0 °F 87% 29.92 in 10.0 mi WSW 8.1 mph - N/A   Clear
10:35 PM 44.6 °F 41.4 °F 39.2 °F 81% 29.93 in 10.0 mi WSW 5.8 mph - N/A   Clear
10:55 PM 44.6 °F 39.7 °F 39.2 °F 81% 29.93 in 10.0 mi WSW 9.2 mph - N/A   Clear
10:56 PM 44.6 °F 39.7 °F 39.2 °F 81% 29.93 in 10.0 mi WSW 9.2 mph - N/A   Clear
11:15 PM 44.6 °F 40.2 °F 39.2 °F 81% 29.93 in 10.0 mi WSW 8.1 mph - N/A   Clear
11:36 PM 44.6 °F 40.2 °F 39.2 °F 81% 29.93 in 10.0 mi WSW 8.1 mph - N/A   Clear
11:55 PM 44.6 °F 40.2 °F 39.2 °F 81% 29.93 in 10.0 mi WSW 8.1 mph - N/A   Scattered Clouds
11:56 PM 44.6 °F 39.7 °F 37.4 °F 76% 29.93 in 10.0 mi WSW 9.2 mph - N/A   Scattered Clouds